Time;durP1;ratioP1;P1;durP2;ratioP2;P2;SDS_P1;SDS_P2;PMS_P1;PMS_P2;Temp;Humidity;BMP_temperature;BMP_pressure;BME280_temperature;BME280_humidity;BME280_pressure;Samples;Min_cycle;Max_cycle;Signal;HPM_P1;HPM_P2
2021/03/24 02:57:03;;;;;;;16.60;6.22;;;6.10;90.30;;;;;;5026917;26;20069;-57
2021/03/24 02:59:30;;;;;;;14.80;5.47;;;6.00;90.30;;;;;;5047089;28;20373;-57
2021/03/24 03:02:13;;;;;;;14.88;5.13;;;6.00;90.30;;;;;;5036720;28;20404;-57
2021/03/24 03:04:45;;;;;;;12.50;5.10;;;6.00;90.60;;;;;;5057029;28;20041;-57
2021/03/24 03:07:29;;;;;;;17.02;5.30;;;6.00;90.50;;;;;;5056495;28;20045;-59
2021/03/24 03:10:06;;;;;;;15.63;5.25;;;6.00;90.70;;;;;;5051355;28;20052;-57
2021/03/24 03:12:50;;;;;;;15.07;5.63;;;5.90;90.70;;;;;;5044888;28;20051;-57
2021/03/24 03:15:31;;;;;;;19.45;5.95;;;5.80;90.80;;;;;;5043444;28;20045;-58
2021/03/24 03:18:12;;;;;;;15.65;6.18;;;5.70;91.20;;;;;;5029024;28;20361;-58
2021/03/24 03:20:44;;;;;;;16.70;5.55;;;5.70;91.40;;;;;;5042321;28;20045;-56
2021/03/24 03:23:20;;;;;;;18.52;5.68;;;5.70;91.60;;;;;;5057942;28;20048;-57
2021/03/24 03:25:58;;;;;;;17.55;6.05;;;5.60;92.10;;;;;;5050328;28;20048;-58
2021/03/24 03:28:27;;;;;;;18.38;6.07;;;5.60;91.80;;;;;;5054894;28;20060;-58
2021/03/24 03:30:56;;;;;;;12.93;5.25;;;5.70;92.10;;;;;;5044669;28;20044;-59
2021/03/24 03:33:26;;;;;;;14.63;5.40;;;5.70;92.00;;;;;;5049196;28;20110;-57
2021/03/24 03:35:53;;;;;;;16.13;5.88;;;5.70;92.00;;;;;;5049893;28;20032;-57
2021/03/24 03:38:23;;;;;;;17.50;5.55;;;5.70;92.10;;;;;;5055354;28;20040;-57
2021/03/24 03:40:52;;;;;;;15.25;5.45;;;5.70;92.10;;;;;;5054952;28;20041;-57
2021/03/24 03:43:21;;;;;;;18.40;7.15;;;5.70;92.10;;;;;;5041507;28;20044;-56
2021/03/24 03:45:50;;;;;;;16.98;5.95;;;5.70;92.10;;;;;;5030805;28;20053;-57
2021/03/24 03:48:18;;;;;;;15.95;5.47;;;5.80;92.10;;;;;;5034170;28;20451;-57
2021/03/24 03:50:52;;;;;;;15.95;5.75;;;5.80;92.10;;;;;;5049245;28;20036;-58
2021/03/24 03:53:33;;;;;;;19.67;5.95;;;5.80;92.10;;;;;;5049872;28;20053;-57
2021/03/24 03:56:22;;;;;;;16.02;6.00;;;5.80;92.20;;;;;;5048758;28;20052;-58
2021/03/24 03:59:05;;;;;;;18.38;5.97;;;5.70;92.10;;;;;;5032900;28;20397;-57
2021/03/24 04:01:33;;;;;;;;;;;5.80;92.30;;;;;;5050187;28;20032;-56
2021/03/24 04:04:09;;;;;;;16.83;6.07;;;5.70;92.20;;;;;;5049681;28;19924;-57
2021/03/24 04:06:40;;;;;;;15.52;5.50;;;5.70;92.20;;;;;;5052379;28;20044;-57
2021/03/24 04:09:10;;;;;;;15.80;5.55;;;5.70;92.30;;;;;;5048493;28;20055;-57
2021/03/24 04:11:43;;;;;;;16.60;5.78;;;5.70;92.30;;;;;;5029886;28;20041;-57
2021/03/24 04:14:14;;;;;;;16.40;6.15;;;5.70;92.40;;;;;;5054568;28;20048;-57
2021/03/24 04:16:41;;;;;;;16.65;5.40;;;5.70;92.40;;;;;;5015176;28;20048;-57
2021/03/24 04:19:11;;;;;;;17.15;5.47;;;5.70;92.50;;;;;;5048960;28;20037;-57
2021/03/24 04:21:42;;;;;;;17.05;5.80;;;5.70;92.40;;;;;;5048050;28;20505;-58
2021/03/24 04:24:22;;;;;;;16.92;5.85;;;5.70;92.20;;;;;;5044601;28;20039;-57
2021/03/24 04:26:52;;;;;;;15.60;5.95;;;5.70;92.30;;;;;;5016530;28;20516;-59
2021/03/24 04:29:26;;;;;;;16.55;6.05;;;5.70;92.30;;;;;;5035761;28;20054;-58
2021/03/24 04:31:57;;;;;;;13.55;5.05;;;5.70;92.60;;;;;;5070742;28;20049;-57
2021/03/24 04:34:25;;;;;;;18.67;5.68;;;5.70;92.30;;;;;;5050624;28;20068;-57
2021/03/24 04:37:28;;;;;;;14.05;5.63;;;5.70;92.40;;;;;;5050039;28;20366;-57
2021/03/24 04:40:07;;;;;;;16.50;6.03;;;5.70;92.40;;;;;;5031561;28;20046;-56
2021/03/24 04:43:04;;;;;;;17.88;5.75;;;5.70;92.40;;;;;;5029424;28;20274;-57
2021/03/24 04:45:41;;;;;;;18.55;5.70;;;5.80;92.40;;;;;;5037372;28;20049;-57
2021/03/24 04:48:18;;;;;;;15.98;5.28;;;5.80;92.30;;;;;;5031238;28;20053;-58
2021/03/24 04:50:57;;;;;;;14.95;5.65;;;5.70;92.30;;;;;;5048805;28;20131;-58
2021/03/24 04:53:25;;;;;;;14.65;5.78;;;5.70;92.30;;;;;;5036283;28;20045;-58
2021/03/24 04:55:55;;;;;;;15.68;5.75;;;5.80;92.50;;;;;;5050115;28;20049;-56
2021/03/24 04:58:35;;;;;;;14.13;5.38;;;5.80;92.30;;;;;;5035810;28;20048;-58
2021/03/24 05:01:10;;;;;;;14.45;5.68;;;5.80;92.40;;;;;;5055708;28;20049;-57
2021/03/24 05:03:41;;;;;;;14.27;4.88;;;5.80;92.30;;;;;;5059468;28;20037;-58
2021/03/24 05:06:21;;;;;;;15.57;5.30;;;5.80;92.20;;;;;;5054028;28;20040;-58
2021/03/24 05:08:48;;;;;;;13.52;4.97;;;5.90;92.30;;;;;;5049499;28;20049;-56
2021/03/24 05:11:25;;;;;;;13.20;4.82;;;5.80;92.20;;;;;;5053500;28;20045;-57
2021/03/24 05:14:04;;;;;;;12.38;4.97;;;5.90;92.20;;;;;;5052148;28;20059;-57
2021/03/24 05:16:41;;;;;;;15.77;5.93;;;6.00;92.20;;;;;;5051673;28;20041;-57
2021/03/24 05:19:19;;;;;;;16.13;4.65;;;6.00;92.00;;;;;;5043833;28;20048;-58
2021/03/24 05:21:46;;;;;;;13.60;5.60;;;6.10;91.80;;;;;;5031432;28;20053;-57
2021/03/24 05:24:18;;;;;;;15.50;5.05;;;6.10;91.80;;;;;;5040654;28;20045;-58
2021/03/24 05:26:50;;;;;;;11.83;5.23;;;6.10;91.50;;;;;;5059479;28;20528;-57
2021/03/24 05:29:22;;;;;;;15.18;5.40;;;6.20;91.50;;;;;;5027978;28;20788;-58
2021/03/24 05:31:52;;;;;;;12.77;5.38;;;6.20;91.40;;;;;;5033473;28;20443;-60
2021/03/24 05:34:27;;;;;;;14.38;5.18;;;6.20;91.30;;;;;;5052299;28;20049;-57
2021/03/24 05:36:54;;;;;;;18.13;5.95;;;6.20;91.20;;;;;;5051869;28;20048;-59
2021/03/24 05:39:27;;;;;;;14.13;5.50;;;6.30;91.10;;;;;;5050859;28;20041;-59
2021/03/24 05:42:27;;;;;;;13.93;5.68;;;6.30;90.90;;;;;;5053029;28;20044;-59
2021/03/24 05:45:24;;;;;;;13.27;5.25;;;6.40;90.80;;;;;;5040639;28;20060;-59
2021/03/24 05:48:03;;;;;;;13.95;5.57;;;6.40;90.90;;;;;;5032728;28;20047;-58
2021/03/24 05:51:01;;;;;;;13.05;5.10;;;6.50;90.60;;;;;;5047846;28;20395;-59
2021/03/24 05:53:57;;;;;;;13.95;4.90;;;6.50;90.40;;;;;;5039311;28;20047;-60
2021/03/24 05:56:42;;;;;;;13.45;4.95;;;6.50;90.40;;;;;;5048038;28;20396;-61
2021/03/24 05:59:20;;;;;;;13.98;6.05;;;6.60;90.20;;;;;;5047650;28;20053;-58
2021/03/24 06:02:01;;;;;;;15.80;5.82;;;6.60;90.10;;;;;;5049005;28;20041;-61
2021/03/24 06:04:55;;;;;;;12.73;5.28;;;6.60;89.90;;;;;;5047870;28;20121;-59
2021/03/24 06:07:43;;;;;;;12.38;4.65;;;6.60;89.50;;;;;;5037042;28;20033;-59
2021/03/24 06:10:48;;;;;;;11.38;4.38;;;6.70;89.10;;;;;;5050507;28;20044;-58
2021/03/24 06:13:42;;;;;;;13.05;4.85;;;6.70;88.70;;;;;;4948995;29;20087;-57
2021/03/24 06:16:47;;;;;;;13.75;5.75;;;6.80;88.50;;;;;;4959452;28;20054;-59
2021/03/24 06:19:30;;;;;;;14.40;5.25;;;6.80;88.70;;;;;;4965140;28;20449;-62
2021/03/24 06:22:09;;;;;;;15.55;6.05;;;6.80;88.00;;;;;;4965403;28;20051;-58
2021/03/24 06:24:59;;;;;;;12.25;5.03;;;6.90;87.70;;;;;;4955023;28;20513;-58
2021/03/24 06:27:47;;;;;;;14.80;5.82;;;6.90;87.70;;;;;;4951991;28;20043;-57
2021/03/24 06:30:16;;;;;;;15.98;5.50;;;7.00;87.40;;;;;;4969517;28;20054;-57
2021/03/24 06:33:01;;;;;;;14.90;5.70;;;7.00;87.90;;;;;;4948401;28;20050;-58
2021/03/24 06:35:59;;;;;;;16.15;5.45;;;7.10;86.80;;;;;;4970300;28;20530;-59
2021/03/24 06:38:58;;;;;;;12.13;4.85;;;7.10;86.60;;;;;;4978714;28;20053;-58
2021/03/24 06:41:42;;;;;;;12.60;4.93;;;7.20;86.40;;;;;;4970792;28;20051;-57
2021/03/24 06:44:54;;;;;;;15.48;5.28;;;7.20;85.80;;;;;;4971562;28;20050;-58
2021/03/24 06:47:23;;;;;;;14.55;5.60;;;7.20;86.00;;;;;;5009757;28;20063;-57
2021/03/24 06:50:13;;;;;;;13.65;5.15;;;7.30;85.50;;;;;;5048517;28;20051;-59
2021/03/24 06:52:49;;;;;;;17.10;5.57;;;7.40;85.70;;;;;;5045332;28;20044;-59
2021/03/24 06:55:52;;;;;;;12.85;4.95;;;7.50;85.30;;;;;;5057535;28;20044;-57
2021/03/24 06:58:21;;;;;;;17.50;5.88;;;7.50;85.00;;;;;;5049633;28;20037;-58
2021/03/24 07:01:16;;;;;;;15.45;5.50;;;7.60;85.10;;;;;;5043392;28;20037;-58
2021/03/24 07:04:24;;;;;;;11.38;5.07;;;7.70;84.20;;;;;;5024134;28;20056;-59
2021/03/24 07:07:18;;;;;;;12.25;5.30;;;7.80;84.30;;;;;;5055866;28;20052;-57
2021/03/24 07:10:18;;;;;;;15.15;5.13;;;7.90;83.80;;;;;;5034045;28;20056;-58
2021/03/24 07:13:02;;;;;;;12.55;5.90;;;8.00;82.90;;;;;;5017116;28;20049;-59
2021/03/24 07:15:41;;;;;;;12.65;5.45;;;8.10;82.00;;;;;;5049591;28;20029;-60
2021/03/24 07:18:29;;;;;;;12.43;5.28;;;8.20;82.00;;;;;;5032700;28;20041;-59
2021/03/24 07:21:25;;;;;;;15.00;5.47;;;8.30;81.60;;;;;;5048912;28;20029;-58
2021/03/24 07:24:28;;;;;;;13.43;5.50;;;8.30;79.40;;;;;;5042067;28;20041;-58
2021/03/24 07:27:17;;;;;;;13.15;5.15;;;8.30;78.70;;;;;;5050681;28;20037;-58
2021/03/24 07:30:06;;;;;;;16.02;6.82;;;8.40;78.90;;;;;;5036041;28;20048;-59
2021/03/24 07:32:37;;;;;;;16.35;6.75;;;8.40;79.30;;;;;;5027114;28;20045;-58
2021/03/24 07:35:21;;;;;;;15.63;7.10;;;8.50;78.60;;;;;;5043356;28;20051;-57
2021/03/24 07:38:12;;;;;;;14.82;5.88;;;8.40;78.20;;;;;;5032511;28;20504;-57
2021/03/24 07:41:03;;;;;;;11.02;4.53;;;8.40;78.70;;;;;;5048228;28;20390;-58
2021/03/24 07:43:49;;;;;;;13.63;5.38;;;8.40;78.30;;;;;;5051442;28;20051;-58
2021/03/24 07:46:37;;;;;;;8.98;4.30;;;8.40;78.90;;;;;;5010153;28;20057;-59
2021/03/24 07:49:23;;;;;;;13.45;5.20;;;8.40;78.70;;;;;;5047461;28;20126;-59
2021/03/24 07:52:07;;;;;;;12.13;5.40;;;8.40;78.70;;;;;;5029797;28;20052;-58
2021/03/24 07:54:53;;;;;;;14.02;5.63;;;8.40;78.80;;;;;;5032008;28;20056;-59
2021/03/24 07:57:35;;;;;;;12.88;5.20;;;8.40;78.70;;;;;;5051347;28;20095;-58
2021/03/24 08:00:33;;;;;;;15.48;6.47;;;8.50;78.50;;;;;;5043279;28;20045;-57
2021/03/24 08:03:23;;;;;;;13.05;5.57;;;8.40;78.80;;;;;;5048714;28;20072;-59
2021/03/24 08:06:02;;;;;;;14.52;5.85;;;8.40;78.90;;;;;;5033266;28;20091;-59
2021/03/24 08:08:49;;;;;;;16.60;5.85;;;8.40;79.20;;;;;;5017020;28;20489;-58
2021/03/24 08:11:35;;;;;;;11.35;5.25;;;8.50;78.90;;;;;;5032618;28;20555;-58
2021/03/24 08:14:35;;;;;;;16.42;6.75;;;8.50;78.60;;;;;;5053233;28;20045;-57
2021/03/24 08:17:35;;;;;;;14.73;5.97;;;8.60;79.20;;;;;;5036359;28;20620;-58
2021/03/24 08:20:29;;;;;;;14.55;5.50;;;8.70;78.90;;;;;;5038118;28;20064;-60
2021/03/24 08:23:11;;;;;;;15.32;6.25;;;8.90;78.50;;;;;;5024658;28;20056;-58
2021/03/24 08:25:54;;;;;;;16.92;6.97;;;9.00;77.60;;;;;;5017272;28;20037;-58
2021/03/24 08:28:38;;;;;;;16.92;7.05;;;9.00;77.70;;;;;;5052768;28;20095;-59
2021/03/24 08:31:36;;;;;;;16.27;6.55;;;9.10;77.20;;;;;;5045874;28;20044;-58
2021/03/24 08:34:09;;;;;;;15.02;7.18;;;9.20;77.20;;;;;;5037178;28;20124;-58
2021/03/24 08:36:47;;;;;;;14.65;5.72;;;9.30;76.70;;;;;;5015938;28;20041;-60
2021/03/24 08:39:41;;;;;;;17.67;7.40;;;9.30;76.60;;;;;;5034945;28;20459;-59
2021/03/24 08:42:27;;;;;;;16.90;7.72;;;9.30;76.30;;;;;;5036147;28;20152;-59
2021/03/24 08:45:20;;;;;;;18.50;6.70;;;9.40;76.90;;;;;;5010849;28;20050;-59
2021/03/24 08:47:51;;;;;;;14.93;5.93;;;9.40;77.00;;;;;;5052040;28;20507;-57
2021/03/24 08:50:29;;;;;;;18.80;7.10;;;9.40;76.90;;;;;;5048404;28;20130;-58
2021/03/24 08:53:35;;;;;;;16.48;6.75;;;9.40;77.00;;;;;;5051518;28;20042;-58
2021/03/24 08:56:19;;;;;;;15.65;6.47;;;9.30;77.90;;;;;;5044979;28;20049;-58
2021/03/24 08:59:12;;;;;;;14.57;6.05;;;9.40;77.20;;;;;;5024993;28;20049;-59
2021/03/24 09:02:17;;;;;;;14.43;6.32;;;9.40;76.70;;;;;;5049796;28;20063;-58
2021/03/24 09:04:47;;;;;;;17.30;6.10;;;9.40;77.00;;;;;;5049893;28;20029;-59
2021/03/24 09:07:25;;;;;;;10.07;4.43;;;9.40;77.80;;;;;;5033068;28;20420;-58
2021/03/24 09:10:33;;;;;;;11.32;5.22;;;9.40;78.00;;;;;;5024209;28;20419;-59
2021/03/24 09:13:21;;;;;;;9.20;3.92;;;9.40;78.00;;;;;;5043606;28;20052;-58
2021/03/24 09:16:12;;;;;;;8.82;3.38;;;9.40;77.50;;;;;;5037261;28;20401;-59
2021/03/24 09:19:09;;;;;;;9.82;3.75;;;9.30;75.80;;;;;;5015402;28;20061;-59
2021/03/24 09:22:05;;;;;;;6.53;3.10;;;9.30;76.00;;;;;;5042962;28;20033;-58
2021/03/24 09:24:56;;;;;;;6.22;2.80;;;9.20;75.60;;;;;;5047835;28;20430;-58
2021/03/24 09:27:28;;;;;;;7.50;3.53;;;9.20;74.60;;;;;;5036821;28;20046;-59
2021/03/24 09:30:22;;;;;;;7.10;3.13;;;9.20;74.30;;;;;;5047220;28;20045;-58
2021/03/24 09:33:05;;;;;;;8.00;3.65;;;9.20;74.40;;;;;;5050399;28;20053;-57
2021/03/24 09:36:02;;;;;;;5.47;3.08;;;9.30;74.70;;;;;;5033638;28;20056;-58
2021/03/24 09:38:34;;;;;;;7.43;3.63;;;9.40;74.50;;;;;;4948816;28;20210;-59
2021/03/24 09:41:42;;;;;;;11.25;3.90;;;9.50;73.60;;;;;;4945989;28;20053;-57
2021/03/24 09:44:27;;;;;;;9.52;3.40;;;9.50;73.10;;;;;;4950507;28;20050;-60
2021/03/24 09:46:55;;;;;;;8.55;2.50;;;9.50;73.10;;;;;;4963011;28;20101;-59
2021/03/24 09:49:40;;;;;;;8.50;3.97;;;9.50;72.30;;;;;;4966917;28;20090;-59
2021/03/24 09:52:43;;;;;;;5.00;3.22;;;9.50;73.50;;;;;;4967001;28;20560;-58
2021/03/24 09:55:20;;;;;;;7.82;3.13;;;9.50;72.20;;;;;;4969768;28;20058;-58
2021/03/24 09:58:14;;;;;;;5.32;2.67;;;9.50;72.40;;;;;;4968470;28;20062;-59
2021/03/24 10:01:07;;;;;;;5.78;2.45;;;9.50;71.90;;;;;;4965922;28;20102;-58
2021/03/24 10:03:57;;;;;;;5.75;2.60;;;9.50;72.30;;;;;;4952843;28;20047;-60
2021/03/24 10:06:41;;;;;;;6.63;3.08;;;9.50;71.70;;;;;;4963874;28;20616;-59
2021/03/24 10:09:25;;;;;;;7.78;2.92;;;9.50;72.40;;;;;;4965193;28;20059;-59
2021/03/24 10:12:07;;;;;;;9.07;3.15;;;9.40;73.20;;;;;;4965603;28;20050;-59
2021/03/24 10:14:51;;;;;;;7.38;3.08;;;9.40;73.00;;;;;;4968953;28;20057;-59
2021/03/24 10:17:25;;;;;;;6.88;3.20;;;9.60;72.80;;;;;;5034388;28;20036;-58
2021/03/24 10:19:59;;;;;;;6.85;2.70;;;9.60;71.40;;;;;;5037620;28;20121;-59
2021/03/24 10:22:42;;;;;;;5.18;2.70;;;9.50;71.50;;;;;;5042835;28;20072;-59
2021/03/24 10:25:45;;;;;;;8.10;3.10;;;9.30;71.70;;;;;;5044270;28;20041;-58
2021/03/24 10:28:42;;;;;;;8.15;2.85;;;9.10;72.10;;;;;;4959186;28;20051;-57
2021/03/24 10:31:36;;;;;;;6.60;2.72;;;9.00;72.80;;;;;;4956617;28;20499;-58
2021/03/24 10:34:17;;;;;;;6.20;2.83;;;8.90;73.80;;;;;;4968973;28;20047;-59
2021/03/24 10:36:47;;;;;;;9.07;3.45;;;8.70;74.60;;;;;;4960937;28;20158;-58
2021/03/24 10:39:26;;;;;;;8.75;3.13;;;8.70;74.80;;;;;;4958849;28;20055;-58
2021/03/24 10:42:04;;;;;;;5.95;3.55;;;8.60;74.80;;;;;;4964043;28;20055;-59
2021/03/24 10:44:52;;;;;;;5.97;2.88;;;8.50;75.10;;;;;;4952018;28;20057;-58
2021/03/24 10:47:29;;;;;;;6.78;2.88;;;8.50;75.60;;;;;;4960298;28;20470;-57
2021/03/24 10:50:23;;;;;;;9.25;3.40;;;8.50;76.00;;;;;;4950138;28;20142;-58
2021/03/24 10:52:58;;;;;;;7.10;3.13;;;8.40;76.40;;;;;;4956903;28;20063;-59
2021/03/24 10:55:27;;;;;;;5.60;3.00;;;8.40;76.90;;;;;;4957646;28;20067;-59
2021/03/24 10:58:31;;;;;;;6.10;2.58;;;8.40;77.50;;;;;;4946252;28;20057;-59
2021/03/24 11:01:20;;;;;;;7.57;3.15;;;8.30;77.70;;;;;;4953717;28;20039;-57
2021/03/24 11:04:13;;;;;;;9.50;3.00;;;8.30;77.80;;;;;;5036363;28;20385;-60
2021/03/24 11:07:15;;;;;;;7.60;3.10;;;8.20;78.10;;;;;;5040851;28;20409;-58
2021/03/24 11:09:46;;;;;;;10.90;4.57;;;8.20;77.90;;;;;;4946530;28;20130;-58
2021/03/24 11:12:15;;;;;;;12.15;5.32;;;8.10;78.40;;;;;;4946662;28;20063;-58
2021/03/24 11:14:59;;;;;;;11.75;4.00;;;8.10;78.10;;;;;;4954240;28;20449;-60
2021/03/24 11:17:32;;;;;;;52.40;17.92;;;8.00;79.00;;;;;;4939915;28;20048;-61
2021/03/24 11:20:46;;;;;;;50.25;16.38;;;7.90;79.60;;;;;;4911135;29;20063;-58
2021/03/24 11:23:42;;;;;;;105.75;24.70;;;7.90;79.40;;;;;;4935561;28;20089;-58
2021/03/24 11:26:39;;;;;;;71.68;18.60;;;7.80;79.40;;;;;;4928104;29;20106;-59
2021/03/24 11:29:08;;;;;;;28.45;8.25;;;7.90;79.30;;;;;;4939368;29;20070;-60
2021/03/24 11:32:02;;;;;;;16.48;6.60;;;7.90;79.60;;;;;;4946361;28;20530;-59
2021/03/24 11:35:02;;;;;;;42.20;11.32;;;7.90;79.70;;;;;;4944814;29;20047;-58
2021/03/24 11:38:08;;;;;;;13.38;4.50;;;8.00;80.00;;;;;;4930638;29;20043;-59
2021/03/24 11:40:54;;;;;;;9.70;3.65;;;8.00;79.50;;;;;;4920436;29;20055;-59
2021/03/24 11:43:30;;;;;;;18.77;6.35;;;8.10;79.10;;;;;;4936805;29;20458;-60
2021/03/24 11:46:14;;;;;;;25.52;7.22;;;8.10;79.00;;;;;;4949074;28;20049;-61
2021/03/24 11:49:11;;;;;;;12.82;4.05;;;8.20;79.20;;;;;;5013260;28;20103;-59
2021/03/24 11:52:00;;;;;;;18.55;7.03;;;8.20;78.10;;;;;;4995997;28;20042;-58
2021/03/24 11:54:36;;;;;;;20.65;6.72;;;8.20;78.20;;;;;;4994426;28;20054;-59
2021/03/24 11:57:23;;;;;;;9.40;3.75;;;8.20;78.20;;;;;;4998430;28;20062;-59
2021/03/24 12:00:37;;;;;;;9.38;3.33;;;8.20;78.20;;;;;;5019227;28;20064;-60
2021/03/24 12:03:14;;;;;;;10.30;3.10;;;8.20;78.00;;;;;;4977975;28;20046;-60
2021/03/24 12:06:00;;;;;;;6.50;3.08;;;8.20;78.60;;;;;;4987248;28;20510;-60
2021/03/24 12:08:55;;;;;;;6.43;2.75;;;8.20;78.30;;;;;;4989559;28;20046;-59
2021/03/24 12:11:29;;;;;;;6.93;2.97;;;8.20;78.70;;;;;;4983283;28;20517;-59
2021/03/24 12:14:16;;;;;;;6.70;3.55;;;8.20;78.30;;;;;;4979772;28;20497;-59
2021/03/24 12:16:47;;;;;;;6.57;2.70;;;8.10;78.40;;;;;;4989533;28;20081;-59
2021/03/24 12:19:37;;;;;;;7.78;3.10;;;8.10;78.60;;;;;;4989971;28;20061;-61
2021/03/24 12:22:21;;;;;;;6.50;2.55;;;8.20;78.70;;;;;;4988457;28;20054;-61
2021/03/24 12:24:58;;;;;;;4.57;2.30;;;8.40;78.20;;;;;;4989316;28;20043;-59
2021/03/24 12:27:34;;;;;;;5.95;2.67;;;8.50;77.70;;;;;;4973020;28;20058;-64
2021/03/24 12:30:08;;;;;;;6.75;3.40;;;8.70;77.20;;;;;;4985056;28;20066;-58
2021/03/24 12:32:37;;;;;;;8.73;3.00;;;8.90;76.80;;;;;;4986022;28;20153;-61
2021/03/24 12:35:06;;;;;;;7.28;2.95;;;9.10;76.20;;;;;;4976683;28;20053;-60
2021/03/24 12:37:45;;;;;;;10.13;4.13;;;9.40;75.30;;;;;;5026679;28;20134;-57
2021/03/24 12:40:18;;;;;;;8.75;2.88;;;9.60;73.40;;;;;;5035865;28;20041;-60
2021/03/24 12:42:45;;;;;;;6.72;2.78;;;9.80;73.50;;;;;;5051583;28;20059;-57
2021/03/24 12:45:40;;;;;;;7.72;3.28;;;9.90;72.90;;;;;;5039057;28;20846;-58
2021/03/24 12:48:34;;;;;;;8.60;3.30;;;9.90;71.90;;;;;;5044256;28;20044;-58
2021/03/24 12:51:37;;;;;;;6.97;3.03;;;10.00;71.80;;;;;;5047487;28;20036;-59
2021/03/24 12:54:08;;;;;;;6.03;2.70;;;10.10;71.40;;;;;;5033674;28;20164;-58
2021/03/24 12:56:50;;;;;;;6.43;3.15;;;10.20;71.20;;;;;;5036366;28;20041;-58
2021/03/24 12:59:52;;;;;;;6.68;2.95;;;10.30;70.00;;;;;;5046295;28;20122;-58
2021/03/24 13:02:40;;;;;;;6.57;3.63;;;10.40;69.70;;;;;;4971799;28;20086;-58
2021/03/24 13:05:24;;;;;;;7.32;3.10;;;10.50;69.30;;;;;;4971735;28;20069;-59
2021/03/24 13:08:00;;;;;;;7.88;3.10;;;10.60;68.70;;;;;;4986989;28;20081;-58
2021/03/24 13:10:52;;;;;;;11.00;2.50;;;10.70;68.70;;;;;;4977100;28;20117;-58
2021/03/24 13:13:43;;;;;;;6.72;2.75;;;10.90;68.60;;;;;;4975147;28;20140;-59
2021/03/24 13:16:16;;;;;;;6.80;2.67;;;11.00;67.70;;;;;;4968708;28;20045;-58
2021/03/24 13:18:58;;;;;;;5.43;2.85;;;11.00;66.90;;;;;;4969479;28;20069;-62
2021/03/24 13:21:40;;;;;;;8.60;3.10;;;11.00;66.80;;;;;;4977234;28;20576;-58
2021/03/24 13:24:38;;;;;;;8.40;2.80;;;11.20;66.50;;;;;;4950929;28;20106;-57
2021/03/24 13:27:46;;;;;;;8.38;3.05;;;11.30;67.10;;;;;;4971810;28;20073;-58
2021/03/24 13:30:33;;;;;;;5.95;2.65;;;11.30;66.50;;;;;;4962473;28;20051;-58
2021/03/24 13:33:05;;;;;;;10.55;3.88;;;11.30;65.50;;;;;;4971887;28;20051;-57
2021/03/24 13:35:40;;;;;;;;;;;11.40;65.10;;;;;;4969916;28;20077;-57
2021/03/24 13:38:28;;;;;;;7.22;3.58;;;11.50;64.30;;;;;;4964325;28;19926;-59
2021/03/24 13:40:59;;;;;;;9.23;3.58;;;11.50;65.50;;;;;;5044351;28;20040;-58
2021/03/24 13:43:30;;;;;;;7.82;3.53;;;11.50;65.40;;;;;;5050206;28;20111;-59
2021/03/24 13:46:07;;;;;;;9.23;3.80;;;11.50;65.00;;;;;;5031370;28;20044;-58
2021/03/24 13:48:36;;;;;;;8.25;3.45;;;11.50;64.10;;;;;;5044997;28;20494;-59
2021/03/24 13:51:41;;;;;;;7.55;3.42;;;11.40;64.60;;;;;;5027788;28;20044;-57
2021/03/24 13:54:29;;;;;;;6.93;3.20;;;11.30;65.30;;;;;;4974484;28;20062;-62
2021/03/24 13:57:16;;;;;;;9.88;3.45;;;11.30;65.50;;;;;;4985724;28;20154;-61
2021/03/24 13:59:52;;;;;;;15.45;3.28;;;11.30;65.50;;;;;;4985241;28;20046;-58
2021/03/24 14:02:52;;;;;;;9.60;4.13;;;11.20;65.10;;;;;;4964750;28;20584;-59
2021/03/24 14:05:35;;;;;;;9.95;3.63;;;11.30;65.70;;;;;;4966233;28;20150;-59
2021/03/24 14:08:30;;;;;;;9.02;4.18;;;11.20;65.50;;;;;;4972313;28;20053;-59
2021/03/24 14:11:27;;;;;;;8.50;4.30;;;11.10;65.20;;;;;;4958235;28;20058;-58
2021/03/24 14:14:14;;;;;;;13.80;4.32;;;11.00;65.70;;;;;;4977665;28;20050;-59
2021/03/24 14:16:44;;;;;;;8.02;4.00;;;11.00;65.90;;;;;;4965751;28;20046;-63
2021/03/24 14:19:23;;;;;;;8.55;3.75;;;11.00;65.80;;;;;;4980614;28;20053;-63
2021/03/24 14:22:15;;;;;;;9.13;3.30;;;11.00;66.30;;;;;;4965356;28;20051;-60
2021/03/24 14:24:54;;;;;;;6.97;3.40;;;10.90;66.50;;;;;;4985601;28;20605;-62
2021/03/24 14:27:43;;;;;;;10.95;3.80;;;10.90;65.80;;;;;;4974781;28;20504;-61
2021/03/24 14:30:41;;;;;;;10.13;4.07;;;11.00;65.70;;;;;;5023853;28;20053;-61
2021/03/24 14:33:08;;;;;;;9.38;3.80;;;10.90;65.60;;;;;;5020974;28;20045;-60
2021/03/24 14:36:02;;;;;;;8.52;3.75;;;10.90;65.40;;;;;;4999864;28;20132;-60
2021/03/24 14:38:38;;;;;;;8.85;3.45;;;10.80;65.20;;;;;;5024274;28;20042;-61
2021/03/24 14:41:19;;;;;;;8.00;2.90;;;10.80;65.70;;;;;;5010545;28;20504;-60
2021/03/24 14:44:11;;;;;;;7.60;3.20;;;10.70;65.80;;;;;;5034849;28;20056;-61
2021/03/24 14:47:16;;;;;;;11.63;3.42;;;10.70;65.70;;;;;;4998744;28;20060;-60
2021/03/24 14:49:46;;;;;;;9.77;3.22;;;10.70;65.50;;;;;;5008171;28;20088;-62
2021/03/24 14:52:35;;;;;;;7.82;4.03;;;10.60;65.40;;;;;;5006572;28;20060;-61
2021/03/24 14:55:22;;;;;;;9.45;3.65;;;10.60;65.50;;;;;;5015937;28;20045;-60
2021/03/24 14:57:49;;;;;;;9.65;4.03;;;10.50;65.90;;;;;;5026081;28;20053;-60
2021/03/24 15:00:34;;;;;;;8.20;4.10;;;10.50;66.40;;;;;;5025696;28;20508;-61
2021/03/24 15:03:13;;;;;;;8.52;3.47;;;10.40;66.10;;;;;;5026041;28;20737;-61
2021/03/24 15:05:45;;;;;;;10.55;3.35;;;10.40;66.30;;;;;;5017638;28;20064;-59
2021/03/24 15:08:27;;;;;;;10.77;3.70;;;10.40;66.50;;;;;;5017187;28;20135;-61
2021/03/24 15:10:57;;;;;;;11.50;3.53;;;10.50;65.50;;;;;;5024037;28;20045;-62
2021/03/24 15:13:53;;;;;;;8.77;3.72;;;10.60;65.40;;;;;;5020985;28;20484;-60
2021/03/24 15:16:35;;;;;;;7.85;4.00;;;10.60;65.30;;;;;;5006576;28;20049;-61
2021/03/24 15:19:34;;;;;;;8.30;3.67;;;10.60;65.90;;;;;;5019631;28;20048;-60
2021/03/24 15:22:34;;;;;;;11.60;6.00;;;10.60;66.10;;;;;;5031605;28;20041;-61
2021/03/24 15:25:24;;;;;;;11.73;5.55;;;10.40;66.80;;;;;;5015137;28;20049;-60
2021/03/24 15:27:54;;;;;;;12.60;4.90;;;10.30;66.30;;;;;;5042782;28;20049;-59
2021/03/24 15:30:39;;;;;;;11.38;4.13;;;10.20;67.00;;;;;;5027718;28;20138;-58
2021/03/24 15:33:16;;;;;;;16.48;4.88;;;10.20;67.00;;;;;;5039607;28;20593;-58
2021/03/24 15:35:51;;;;;;;9.52;3.97;;;10.10;67.40;;;;;;5022113;28;20458;-58
2021/03/24 15:38:22;;;;;;;10.07;4.53;;;10.00;67.80;;;;;;5045760;28;20033;-60
2021/03/24 15:41:10;;;;;;;9.40;4.00;;;9.80;68.30;;;;;;5042177;28;20032;-58
2021/03/24 15:43:59;;;;;;;10.40;4.38;;;9.70;68.70;;;;;;5029709;28;20051;-58
2021/03/24 15:46:29;;;;;;;9.18;3.60;;;9.60;69.00;;;;;;5044908;28;20135;-58
2021/03/24 15:48:58;;;;;;;11.77;4.45;;;9.60;69.40;;;;;;5034231;28;20047;-59
2021/03/24 15:51:29;;;;;;;12.60;5.20;;;9.50;69.40;;;;;;5014267;28;20041;-58
2021/03/24 15:53:58;;;;;;;22.25;10.75;;;9.20;70.40;;;;;;5035047;28;20064;-57
2021/03/24 15:56:34;;;;;;;38.47;13.57;;;9.20;71.60;;;;;;5028714;28;20077;-58
2021/03/24 15:59:29;;;;;;;25.85;9.82;;;9.20;71.90;;;;;;5032921;28;20045;-59
2021/03/24 16:02:13;;;;;;;32.70;11.75;;;9.20;72.10;;;;;;4966752;28;20091;-59
2021/03/24 16:04:48;;;;;;;18.23;7.30;;;9.10;71.70;;;;;;4948701;28;20149;-59
2021/03/24 16:07:53;;;;;;;11.57;5.47;;;9.00;72.00;;;;;;4955693;28;20061;-58
2021/03/24 16:10:42;;;;;;;18.63;7.75;;;8.90;72.10;;;;;;4967486;28;20051;-58
2021/03/24 16:13:29;;;;;;;13.95;6.35;;;8.90;72.40;;;;;;4970352;28;20063;-58
2021/03/24 16:16:16;;;;;;;16.35;7.20;;;8.80;72.90;;;;;;4970092;28;20154;-59
2021/03/24 16:18:57;;;;;;;16.48;7.43;;;8.80;73.20;;;;;;4967005;28;20102;-60
2021/03/24 16:21:42;;;;;;;14.40;6.55;;;8.70;73.50;;;;;;4978424;28;20139;-59
2021/03/24 16:24:45;;;;;;;17.00;5.82;;;8.80;73.70;;;;;;4967931;28;20539;-57
2021/03/24 16:27:19;;;;;;;17.60;6.28;;;8.80;73.80;;;;;;4913888;28;20050;-58
2021/03/24 16:30:05;;;;;;;18.77;6.55;;;8.80;73.80;;;;;;4969982;28;20581;-59
2021/03/24 16:32:51;;;;;;;17.92;7.53;;;8.80;73.90;;;;;;4966225;28;20174;-58
2021/03/24 16:35:49;;;;;;;16.73;6.72;;;8.70;73.80;;;;;;4968663;28;20193;-58
2021/03/24 16:38:51;;;;;;;27.80;10.88;;;8.70;74.00;;;;;;4986980;28;20060;-58
2021/03/24 16:41:36;;;;;;;24.17;9.63;;;8.60;74.60;;;;;;5048597;28;20107;-60
2021/03/24 16:44:08;;;;;;;65.10;17.92;;;8.60;74.60;;;;;;5032819;28;20051;-57
2021/03/24 16:46:54;;;;;;;36.42;13.07;;;8.70;75.00;;;;;;5048036;28;20244;-59
2021/03/24 16:49:37;;;;;;;41.75;15.45;;;8.70;75.00;;;;;;5056244;28;20063;-58
2021/03/24 16:52:31;;;;;;;53.13;20.15;;;8.70;74.80;;;;;;5033057;28;20060;-60
2021/03/24 16:55:02;;;;;;;38.97;16.33;;;8.60;75.20;;;;;;5048067;28;20057;-58
2021/03/24 16:57:52;;;;;;;44.55;19.13;;;8.60;75.00;;;;;;5034828;28;20118;-58
2021/03/24 17:00:33;;;;;;;63.28;27.70;;;8.60;75.20;;;;;;5052563;28;20049;-58
2021/03/24 17:03:18;;;;;;;41.38;19.33;;;8.60;75.40;;;;;;5045073;28;20037;-59
2021/03/24 17:05:51;;;;;;;35.70;18.08;;;8.60;75.70;;;;;;5033889;28;20041;-58
2021/03/24 17:08:47;;;;;;;38.63;18.23;;;8.60;75.50;;;;;;5043497;28;20049;-60